Iacsonvilla, FL (32257)

01:32 PM EDT die 27o May, anno 2015 (GMT -0400)
Pickwick Park | | Change Station
CLOSE
Current Station
Personal Weather Stations
Location: Jacksonville, FL
Elevation: 30 ft
Nearby Weather Stations

Elev 30 ft 30.21 °N, 81.62 °W | Updated 1 minute ago

Plerumque Nubila
Plerumque Nubila
87.4 °F
Feels Like 84 °F
N
4.0
Ventus Variabilis Ventus from Inter Austrum et Eurum
Gusts 8.0 mph

Hodie
High -- | Low -- °F
--% Chance of Precip.
Yesterday
High -- | Low -- °F
Precip. -- in
6:26 AM 8:20 PM
Waxing Gibbous, 69% visible
Pressio 30.21 in
Visibilitas 10.0 milia passuum
Clouds Nubes Dispersae 5000 ft
Plerumque Nubila 25000 ft
Index Caloris 84 °F
Frigus in quo Ros apparet 43 °F
Umor 21%
Rainfall 0.00 in
Snow Depth Not available.
UV 8 out of 12
Pollen 4.60 out of 12
Air Quality Not available.
Flu Activity Sporadic
METAR KNIP 271653Z 09005KT 10SM SCT050 BKN250 31/16 A3022 RMK AO2 SLP229 T03060161

More Conditions Fewer Conditions

Pressio 30.21 in
Visibilitas 10.0 milia passuum
Clouds Nubes Dispersae 5000 ft
Plerumque Nubila 25000 ft
Index Caloris 84 °F
Frigus in quo Ros apparet 43 °F
Umor 21%
Rainfall 0.00 in
Snow Depth Not available.
UV 8 out of 12
Pollen 4.60 out of 12
Air Quality Not available.
Flu Activity Sporadic
METAR KNIP 271653Z 09005KT 10SM SCT050 BKN250 31/16 A3022 RMK AO2 SLP229 T03060161

More Conditions Fewer Conditions

10-Day Weather Forecast

Almanac

Astronomy

May. 27, 2015 Rise Set
Actual Time
Civil Twilight
Nautical Twilight
Astronomical Twilight
Moon
Length Of Visible Light
Length of Day
Tomorrow will be .
, % of the Moon is Illuminated

Today's Extremes

State Highs State Lows

Community

WunderPhotos

Upload Photos

1,824,731 photos uploaded!

WunderBlogs® & News

Nearby

Air Quality

  Air Quality AQ Index Pollutant
Not available.

Snow Depth

Station Depth Elevation

Earthquake Activity

City Distance Mag. Time & Date
Minimum magnitude displayed is 2.5.

Coastal Water Temperatures

Locus Calor

Stations

Nearby Weather Stations

Station Location Temp Frigus Venti Frigus in quo Ros apparet Umor Ventus Precip. Elev Renovata Type